createdAt,value
2022-10-07T00:02:28.855Z,9.17
2022-10-07T00:07:28.623Z,9.12
2022-10-07T00:12:28.561Z,9.13
2022-10-07T00:17:28.499Z,9.12
2022-10-07T00:22:28.419Z,9.03
2022-10-07T00:27:28.362Z,8.99
2022-10-07T00:32:28.297Z,8.92
2022-10-07T00:37:28.154Z,8.78
2022-10-07T00:42:28.028Z,8.71
2022-10-07T00:47:27.966Z,8.67
2022-10-07T00:52:27.895Z,8.64
2022-10-07T00:57:27.835Z,8.58
2022-10-07T01:02:27.804Z,8.53
2022-10-07T01:07:27.698Z,8.48
2022-10-07T01:12:27.630Z,8.44
2022-10-07T01:17:27.565Z,8.41
2022-10-07T01:22:27.497Z,8.41
2022-10-07T01:27:27.423Z,8.41
2022-10-07T01:32:27.368Z,8.33
2022-10-07T01:37:27.291Z,8.29
2022-10-07T01:42:27.233Z,8.23
2022-10-07T01:47:27.159Z,8.18
2022-10-07T01:52:27.100Z,8.14
2022-10-07T01:57:27.025Z,8.11
2022-10-07T02:02:27.073Z,8.05
2022-10-07T02:07:26.904Z,7.99
2022-10-07T02:12:26.833Z,7.93
2022-10-07T02:17:26.769Z,7.87
2022-10-07T02:22:26.699Z,7.82
2022-10-07T02:27:26.636Z,7.79
2022-10-07T02:32:26.566Z,7.74
2022-10-07T02:37:26.505Z,7.71
2022-10-07T02:42:26.437Z,7.68
2022-10-07T02:47:26.360Z,7.65
2022-10-07T02:52:26.393Z,7.54
2022-10-07T02:57:26.228Z,7.48
2022-10-07T03:02:26.169Z,7.48
2022-10-07T03:07:26.095Z,7.53
2022-10-07T03:12:26.034Z,7.53
2022-10-07T03:17:25.962Z,7.53
2022-10-07T03:22:25.977Z,7.47
2022-10-07T03:27:25.838Z,7.39
2022-10-07T03:32:25.768Z,7.32
2022-10-07T03:37:25.689Z,7.28
2022-10-07T03:42:25.634Z,7.23
2022-10-07T03:47:25.556Z,7.23
2022-10-07T03:52:25.499Z,7.20
2022-10-07T03:57:25.423Z,7.11
2022-10-07T04:02:25.487Z,7.06
2022-10-07T04:07:25.291Z,7.03
2022-10-07T04:12:25.238Z,7.06
2022-10-07T04:17:25.159Z,7.11
2022-10-07T04:22:25.204Z,7.07
2022-10-07T04:27:50.083Z,7.03
2022-10-07T04:32:25.993Z,7.02
2022-10-07T04:37:24.895Z,6.99
2022-10-07T04:42:24.921Z,6.96
2022-10-07T04:47:24.768Z,6.96
2022-10-07T04:52:24.699Z,6.95
2022-10-07T04:57:24.625Z,6.92
2022-10-07T05:02:24.798Z,6.92
2022-10-07T05:07:24.495Z,6.88
2022-10-07T05:12:24.531Z,6.86
2022-10-07T05:17:24.381Z,6.86
2022-10-07T05:22:24.302Z,6.86
2022-10-07T05:27:24.229Z,6.91
2022-10-07T05:32:24.236Z,6.95
2022-10-07T05:37:24.097Z,6.99
2022-10-07T05:42:24.138Z,7.00
2022-10-07T05:47:23.964Z,7.14
2022-10-07T05:52:24.035Z,7.47
2022-10-07T05:57:23.833Z,8.15
2022-10-07T06:02:24.012Z,9.24
2022-10-07T06:07:28.989Z,10.05
2022-10-07T06:12:23.639Z,10.77
2022-10-07T06:17:23.641Z,11.44
2022-10-07T06:22:23.623Z,12.09
2022-10-07T06:27:23.431Z,12.82
2022-10-07T06:32:23.489Z,13.48
2022-10-07T06:37:23.455Z,14.40
2022-10-07T06:42:23.240Z,15.10
2022-10-07T06:47:23.270Z,15.75
2022-10-07T06:52:23.186Z,16.37
2022-10-07T07:02:24.057Z,17.62
2022-10-07T07:07:22.900Z,18.15
2022-10-07T07:12:22.837Z,18.73
2022-10-07T07:17:22.779Z,19.28
2022-10-07T07:22:22.706Z,20.11
2022-10-07T07:27:22.743Z,21.11
2022-10-07T07:32:22.657Z,21.76
2022-10-07T07:37:22.500Z,22.38
2022-10-07T07:42:22.441Z,22.75
2022-10-07T07:47:22.364Z,22.73
2022-10-07T07:52:22.380Z,23.10
2022-10-07T07:57:22.352Z,24.28
2022-10-07T08:02:22.309Z,25.24
2022-10-07T08:07:22.098Z,25.39
2022-10-07T08:12:22.189Z,24.69
2022-10-07T08:17:22.115Z,25.20
2022-10-07T08:22:21.953Z,25.81
2022-10-07T08:27:21.832Z,25.88
2022-10-07T08:32:21.770Z,26.18
2022-10-07T08:37:21.696Z,26.42
2022-10-07T08:42:21.707Z,26.89
2022-10-07T08:47:21.688Z,27.02
2022-10-07T08:52:21.588Z,27.00
2022-10-07T08:57:21.455Z,26.70
2022-10-07T09:02:21.534Z,26.52
2022-10-07T09:07:21.315Z,26.59
2022-10-07T09:12:21.392Z,27.35
2022-10-07T09:17:21.180Z,27.92
2022-10-07T09:22:21.231Z,28.48
2022-10-07T09:27:21.144Z,28.54
2022-10-07T09:32:21.046Z,28.04
2022-10-07T09:37:21.068Z,27.58
2022-10-07T09:42:20.890Z,27.85
2022-10-07T09:47:20.884Z,27.69
2022-10-07T09:52:20.819Z,27.20
2022-10-07T09:57:20.693Z,27.07
2022-10-07T10:02:20.986Z,27.37
2022-10-07T10:07:20.633Z,27.95
2022-10-07T10:12:20.627Z,28.49
2022-10-07T10:17:20.497Z,29.07
2022-10-07T10:22:20.439Z,28.82
2022-10-07T10:27:20.368Z,28.74
2022-10-07T10:32:20.347Z,29.09
2022-10-07T10:37:20.258Z,28.49
2022-10-07T10:42:21.459Z,28.54
2022-10-07T10:47:20.074Z,27.85
2022-10-07T10:52:20.055Z,27.73
2022-10-07T10:57:19.929Z,27.67
2022-10-07T11:02:20.039Z,27.62
2022-10-07T11:07:19.911Z,27.37
2022-10-07T11:12:19.732Z,27.30
2022-10-07T11:17:19.674Z,27.05
2022-10-07T11:22:19.601Z,26.44
2022-10-07T11:27:19.600Z,26.20
2022-10-07T11:32:19.502Z,26.02
2022-10-07T11:37:19.495Z,25.58
2022-10-07T11:42:19.389Z,24.98
2022-10-07T11:47:19.312Z,24.29
2022-10-07T11:52:19.300Z,24.20
2022-10-07T11:57:19.143Z,23.49
2022-10-07T12:02:19.122Z,23.00
2022-10-07T12:07:19.005Z,22.42
2022-10-07T12:12:18.948Z,22.22
2022-10-07T12:17:18.869Z,21.88
2022-10-07T12:22:18.890Z,21.62
2022-10-07T12:27:18.765Z,21.42
2022-10-07T12:32:18.799Z,21.46
2022-10-07T12:37:18.661Z,21.30
2022-10-07T12:42:18.539Z,20.92
2022-10-07T12:47:18.701Z,20.74
2022-10-07T12:52:18.442Z,20.79
2022-10-07T12:57:18.426Z,20.84
2022-10-07T13:02:18.610Z,20.80
2022-10-07T13:07:18.349Z,20.62
2022-10-07T13:12:18.145Z,20.54
2022-10-07T13:17:18.119Z,20.41
2022-10-07T13:22:18.148Z,20.24
2022-10-07T13:27:18.044Z,20.10
2022-10-07T13:32:17.874Z,20.07
2022-10-07T13:37:17.861Z,19.94
2022-10-07T13:42:21.221Z,19.88
2022-10-07T13:47:17.679Z,19.84
2022-10-07T13:52:17.605Z,19.66
2022-10-07T13:57:21.114Z,19.68
2022-10-07T14:02:17.509Z,19.66
2022-10-07T14:07:17.470Z,19.57
2022-10-07T14:12:17.332Z,19.57
2022-10-07T14:17:17.270Z,19.54
2022-10-07T14:22:17.274Z,19.50
2022-10-07T14:27:17.183Z,19.53
2022-10-07T14:32:17.092Z,19.53
2022-10-07T14:37:17.013Z,19.50
2022-10-07T14:42:16.994Z,19.48
2022-10-07T14:47:16.951Z,19.46
2022-10-07T14:52:16.810Z,19.40
2022-10-07T14:57:16.792Z,19.36
2022-10-07T15:02:16.757Z,19.33
2022-10-07T15:07:16.694Z,19.26
2022-10-07T15:12:16.626Z,19.21
2022-10-07T15:17:16.669Z,19.17
2022-10-07T15:22:16.424Z,19.10
2022-10-07T15:27:16.389Z,19.08
2022-10-07T15:32:16.293Z,19.06
2022-10-07T15:37:16.291Z,19.08
2022-10-07T15:42:16.162Z,19.10
2022-10-07T15:47:16.150Z,19.11
2022-10-07T15:52:16.034Z,19.06
2022-10-07T15:57:15.998Z,18.96
2022-10-07T16:02:16.005Z,18.88
2022-10-07T16:07:15.885Z,18.77
2022-10-07T16:12:15.773Z,18.65
2022-10-07T16:17:15.718Z,18.47
2022-10-07T16:22:15.644Z,18.30
2022-10-07T16:27:15.587Z,18.07
2022-10-07T16:32:15.575Z,17.82
2022-10-07T16:37:15.534Z,17.60
2022-10-07T16:42:15.396Z,17.39
2022-10-07T16:47:15.326Z,17.22
2022-10-07T16:52:15.294Z,17.04
2022-10-07T16:57:15.192Z,16.78
2022-10-07T17:02:15.126Z,16.57
2022-10-07T17:07:15.059Z,16.34
2022-10-07T17:12:14.981Z,16.19
2022-10-07T17:17:14.934Z,16.05
2022-10-07T17:22:14.845Z,15.97
2022-10-07T17:27:14.859Z,15.84
2022-10-07T17:32:14.718Z,15.76
2022-10-07T17:37:14.659Z,15.76
2022-10-07T17:42:14.585Z,15.77
2022-10-07T17:47:14.525Z,15.80
2022-10-07T17:52:14.449Z,15.82
2022-10-07T17:57:14.445Z,15.80
2022-10-07T18:02:14.313Z,15.83
2022-10-07T18:07:14.306Z,15.86
2022-10-07T18:12:14.181Z,15.86
2022-10-07T18:17:14.125Z,15.83
2022-10-07T18:22:14.050Z,15.82
2022-10-07T18:27:13.999Z,15.82
2022-10-07T18:32:13.915Z,15.77
2022-10-07T18:37:13.858Z,15.75
2022-10-07T18:42:13.784Z,15.70
2022-10-07T18:47:13.723Z,15.64
2022-10-07T18:52:13.646Z,15.49
2022-10-07T18:57:13.586Z,15.36
2022-10-07T19:02:13.547Z,15.27
2022-10-07T19:07:13.468Z,15.26
2022-10-07T19:12:13.374Z,15.26
2022-10-07T19:17:13.314Z,15.28
2022-10-07T19:22:13.239Z,15.38
2022-10-07T19:27:13.203Z,15.42
2022-10-07T19:32:13.211Z,15.42
2022-10-07T19:37:13.043Z,15.43
2022-10-07T19:42:12.971Z,15.43
2022-10-07T19:47:12.913Z,15.46
2022-10-07T19:52:12.831Z,15.45
2022-10-07T19:57:12.778Z,15.46
2022-10-07T20:02:12.770Z,15.49
2022-10-07T20:07:12.632Z,15.46
2022-10-07T20:12:12.559Z,15.46
2022-10-07T20:17:12.499Z,15.51
2022-10-07T20:22:12.421Z,15.51
2022-10-07T20:27:12.365Z,15.49
2022-10-07T20:32:12.358Z,15.45
2022-10-07T20:37:12.297Z,15.41
2022-10-07T20:42:12.163Z,15.39
2022-10-07T20:47:12.103Z,15.36
2022-10-07T20:52:12.027Z,15.35
2022-10-07T20:57:11.967Z,15.38
2022-10-07T21:02:12.105Z,15.38
2022-10-07T21:07:11.829Z,15.35
2022-10-07T21:12:11.754Z,15.28
2022-10-07T21:17:11.735Z,15.28
2022-10-07T21:22:11.618Z,15.24
2022-10-07T21:27:11.632Z,15.16
2022-10-07T21:32:11.485Z,14.99
2022-10-07T21:37:11.425Z,14.87
2022-10-07T21:42:11.475Z,14.88
2022-10-07T21:47:11.282Z,14.93
2022-10-07T21:52:11.207Z,14.95
2022-10-07T21:57:11.145Z,14.91
2022-10-07T22:02:11.218Z,14.90
2022-10-07T22:07:11.007Z,14.87
2022-10-07T22:12:10.932Z,14.88
2022-10-07T22:17:10.870Z,14.87
2022-10-07T22:22:10.796Z,14.88
2022-10-07T22:27:10.741Z,14.90
2022-10-07T22:32:10.660Z,14.98
2022-10-07T22:37:10.600Z,15.03
2022-10-07T22:42:10.530Z,15.10
2022-10-07T22:47:10.470Z,15.10
2022-10-07T22:52:10.398Z,15.10
2022-10-07T22:57:10.337Z,15.10
2022-10-07T23:02:10.372Z,15.08
2022-10-07T23:07:10.205Z,15.05
2022-10-07T23:12:10.135Z,15.02
2022-10-07T23:17:10.084Z,14.98
2022-10-07T23:22:10.000Z,14.96
2022-10-07T23:27:09.943Z,14.98
2022-10-07T23:32:09.868Z,15.01
2022-10-07T23:37:09.840Z,15.01
2022-10-07T23:42:09.736Z,15.02
2022-10-07T23:47:09.677Z,15.01
2022-10-07T23:52:09.608Z,15.03
2022-10-07T23:57:09.661Z,15.06
